Time;durP1;ratioP1;P1;durP2;ratioP2;P2;SDS_P1;SDS_P2;PMS_P1;PMS_P2;Temp;Humidity;BMP_temperature;BMP_pressure;BME280_temperature;BME280_humidity;BME280_pressure;Samples;Min_cycle;Max_cycle;Signal;HPM_P1;HPM_P2
2023/09/28 00:00:35;;;;;;;16.50;7.60;;;;;;;13.26;100.00;101221.49;105236;1262;60499;-64
2023/09/28 00:03:09;;;;;;;10.40;7.50;;;;;;;13.27;100.00;101219.63;105228;1262;72703;-68
2023/09/28 00:05:36;;;;;;;12.80;7.70;;;;;;;13.25;100.00;101224.80;105130;1263;66039;-64
2023/09/28 00:08:03;;;;;;;11.00;8.10;;;;;;;13.20;100.00;101226.74;105316;1263;72680;-64
2023/09/28 00:10:31;;;;;;;11.90;8.20;;;;;;;13.13;100.00;101228.77;105175;1264;60795;-64
2023/09/28 00:12:58;;;;;;;13.30;8.20;;;;;;;13.03;100.00;101225.70;105483;1265;60513;-67
2023/09/28 00:15:25;;;;;;;14.20;8.60;;;;;;;12.93;100.00;101225.56;105022;1264;74683;-67
2023/09/28 00:17:54;;;;;;;13.10;8.30;;;;;;;12.85;100.00;101226.35;105951;1263;66471;-64
2023/09/28 00:20:22;;;;;;;11.80;7.60;;;;;;;12.79;100.00;101225.25;105247;1261;72382;-63
2023/09/28 00:22:51;;;;;;;10.90;7.00;;;;;;;12.80;100.00;101229.19;105205;1273;59422;-64
2023/09/28 00:25:19;;;;;;;10.10;7.10;;;;;;;12.88;100.00;101229.31;105306;1265;62688;-68
2023/09/28 00:27:47;;;;;;;8.50;6.20;;;;;;;13.01;100.00;101225.90;104948;1265;73614;-66
2023/09/28 00:30:18;;;;;;;12.30;6.00;;;;;;;13.14;100.00;101225.98;105014;1265;67165;-61
2023/09/28 00:32:46;;;;;;;22.40;6.50;;;;;;;13.25;100.00;101223.52;105459;1263;72715;-64
2023/09/28 00:35:13;;;;;;;11.80;6.90;;;;;;;13.31;100.00;101223.87;105596;1264;60418;-65
2023/09/28 00:37:41;;;;;;;9.10;6.30;;;;;;;13.31;100.00;101225.84;105169;1263;60191;-66
2023/09/28 00:40:20;;;;;;;11.40;7.50;;;;;;;13.26;100.00;101227.25;105082;1262;72642;-64
2023/09/28 00:42:49;;;;;;;10.20;6.00;;;;;;;13.19;100.00;101230.16;104943;1259;66205;-61
2023/09/28 00:45:21;;;;;;;13.40;7.60;;;;;;;13.11;100.00;101231.08;105314;1263;71560;-61
2023/09/28 00:47:48;;;;;;;;;;;;;;;13.02;100.00;101229.14;104854;1261;60902;-62
2023/09/28 00:50:16;;;;;;;11.40;7.10;;;;;;;12.93;100.00;101228.39;105304;1262;60348;-64
2023/09/28 00:52:46;;;;;;;9.60;5.60;;;;;;;12.88;100.00;101232.19;106073;1265;73353;-61
2023/09/28 00:55:15;;;;;;;10.80;6.20;;;;;;;12.93;100.00;101230.81;106493;1265;67107;-63
2023/09/28 00:57:42;;;;;;;8.60;6.20;;;;;;;13.04;100.00;101229.55;106719;1263;72830;-61
2023/09/28 01:00:21;;;;;;;12.20;7.40;;;;;;;13.21;100.00;101227.50;104982;1261;60445;-61
2023/09/28 01:02:51;;;;;;;11.50;7.10;;;;;;;13.39;100.00;101228.18;105363;1265;59717;-61
2023/09/28 01:05:19;;;;;;;9.00;7.00;;;;;;;13.55;100.00;101231.20;104969;1265;75655;-62
2023/09/28 01:07:47;;;;;;;8.60;6.10;;;;;;;13.70;100.00;101231.04;105246;1260;67730;-61
2023/09/28 01:10:20;;;;;;;8.30;5.80;;;;;;;13.81;100.00;101230.81;105276;1263;72654;-66
2023/09/28 01:12:48;;;;;;;11.10;6.60;;;;;;;13.89;100.00;101231.09;105070;1266;60548;-63
2023/09/28 01:15:16;;;;;;;9.00;6.30;;;;;;;13.95;100.00;101229.88;105206;1260;60534;-61
2023/09/28 01:17:43;;;;;;;10.10;6.60;;;;;;;13.95;100.00;101232.34;105411;1260;73461;-62
2023/09/28 01:20:24;;;;;;;11.60;6.70;;;;;;;13.84;100.00;101234.94;105286;1269;66811;-63
2023/09/28 01:22:54;;;;;;;11.80;6.60;;;;;;;13.69;100.00;101235.44;105091;1269;72725;-66
2023/09/28 01:25:21;;;;;;;12.00;6.70;;;;;;;13.56;100.00;101239.81;105121;1264;60544;-64
2023/09/28 01:27:48;;;;;;;10.80;6.90;;;;;;;13.49;100.00;101240.02;105457;1264;61689;-64
2023/09/28 01:30:16;;;;;;;8.90;6.40;;;;;;;13.40;100.00;101241.21;105096;1264;73924;-62
2023/09/28 01:32:43;;;;;;;10.80;7.10;;;;;;;13.34;100.00;101240.52;105639;1261;67197;-61
2023/09/28 01:35:13;;;;;;;11.50;6.80;;;;;;;13.33;100.00;101241.14;105202;1261;73316;-63
2023/09/28 01:37:46;;;;;;;8.60;6.50;;;;;;;13.33;100.00;101238.82;104922;1262;60491;-62
2023/09/28 01:40:13;;;;;;;10.60;5.80;;;;;;;13.38;100.00;101238.27;105037;1263;60552;-63
2023/09/28 01:42:42;;;;;;;8.90;6.30;;;;;;;13.48;100.00;101240.82;104843;1266;72390;-62
2023/09/28 01:45:09;;;;;;;8.20;6.30;;;;;;;13.62;100.00;101243.88;105282;1261;67253;-63
2023/09/28 01:47:36;;;;;;;9.90;7.10;;;;;;;13.76;100.00;101246.23;105357;1261;72686;-64
2023/09/28 01:50:04;;;;;;;9.30;6.70;;;;;;;13.87;100.00;101244.63;105009;1264;60555;-62
2023/09/28 01:52:31;;;;;;;12.50;7.00;;;;;;;13.97;100.00;101243.27;105158;1260;60538;-62
2023/09/28 01:54:59;;;;;;;7.40;5.70;;;;;;;14.06;100.00;101242.56;105422;1260;73923;-65
2023/09/28 01:57:25;;;;;;;14.30;6.40;;;;;;;14.11;100.00;101241.06;105279;1263;65857;-62
2023/09/28 01:59:53;;;;;;;11.60;6.80;;;;;;;14.15;100.00;101241.60;105164;1266;71542;-62
2023/09/28 02:02:21;;;;;;;12.60;7.10;;;;;;;14.20;100.00;101246.87;105223;1264;60457;-63
2023/09/28 02:04:48;;;;;;;10.50;6.50;;;;;;;14.23;100.00;101243.02;105258;1264;60383;-64
2023/09/28 02:07:15;;;;;;;9.50;6.30;;;;;;;14.23;100.00;101243.35;105139;1267;74869;-62
2023/09/28 02:09:42;;;;;;;9.40;6.40;;;;;;;14.23;100.00;101246.65;105507;1263;66161;-61
2023/09/28 02:12:09;;;;;;;11.70;7.20;;;;;;;14.23;100.00;101253.92;105152;1261;72711;-63
2023/09/28 02:14:36;;;;;;;10.70;6.20;;;;;;;14.20;100.00;101252.04;105101;1276;60543;-62
2023/09/28 02:17:03;;;;;;;9.70;6.30;;;;;;;14.17;100.00;101249.85;105363;1262;60473;-64
2023/09/28 02:19:30;;;;;;;10.80;6.40;;;;;;;14.12;100.00;101251.64;105552;1261;74293;-62
2023/09/28 02:21:57;;;;;;;10.60;6.30;;;;;;;14.05;100.00;101253.85;105460;1260;65147;-62
2023/09/28 02:24:24;;;;;;;8.80;6.30;;;;;;;14.00;100.00;101255.31;105084;1273;72648;-62
2023/09/28 02:26:52;;;;;;;10.40;6.80;;;;;;;13.95;100.00;101261.46;105042;1260;60485;-62
2023/09/28 02:29:19;;;;;;;9.20;6.80;;;;;;;13.88;100.00;101262.00;105425;1260;60547;-65
2023/09/28 02:31:46;;;;;;;9.90;6.40;;;;;;;13.76;100.00;101259.36;105462;1260;72327;-61
2023/09/28 02:34:13;;;;;;;11.70;7.20;;;;;;;13.63;100.00;101265.45;105132;1260;67760;-62
2023/09/28 02:36:42;;;;;;;12.00;7.60;;;;;;;13.47;100.00;101267.43;105110;1261;71607;-62
2023/09/28 02:39:09;;;;;;;10.10;7.70;;;;;;;13.28;100.00;101265.91;105239;1263;61976;-62
2023/09/28 02:41:36;;;;;;;10.70;6.40;;;;;;;13.10;100.00;101264.71;105112;1263;60943;-62
2023/09/28 02:44:03;;;;;;;12.40;6.90;;;;;;;12.95;100.00;101271.09;104852;1264;75322;-61
2023/09/28 02:46:33;;;;;;;9.60;6.70;;;;;;;12.87;100.00;101273.66;104785;1260;67158;-61
2023/09/28 02:49:00;;;;;;;8.60;7.00;;;;;;;12.86;100.00;101274.89;104679;1262;71411;-62
2023/09/28 02:51:27;;;;;;;13.30;6.40;;;;;;;12.86;100.00;101275.34;105460;1261;60442;-64
2023/09/28 02:53:54;;;;;;;8.00;7.20;;;;;;;12.89;100.00;101282.92;104871;1263;59746;-61
2023/09/28 02:56:21;;;;;;;16.30;9.00;;;;;;;12.89;100.00;101284.69;104892;1260;72657;-61
2023/09/28 02:58:48;;;;;;;12.70;8.10;;;;;;;12.84;100.00;101289.98;104913;1264;65365;-61
2023/09/28 03:01:16;;;;;;;12.20;7.90;;;;;;;12.71;100.00;101288.94;105131;1261;71053;-61
2023/09/28 03:03:44;;;;;;;11.10;8.40;;;;;;;12.59;100.00;101288.90;105275;1260;60398;-63
2023/09/28 03:06:12;;;;;;;13.30;8.20;;;;;;;12.47;100.00;101293.56;104856;1262;60442;-61
2023/09/28 03:08:39;;;;;;;10.80;8.60;;;;;;;12.35;100.00;101301.61;104918;1260;73684;-61
2023/09/28 03:11:06;;;;;;;13.00;8.10;;;;;;;12.25;100.00;101298.09;104884;1259;67116;-61
2023/09/28 03:13:34;;;;;;;11.30;8.50;;;;;;;12.17;100.00;101300.73;105005;1262;72948;-61
2023/09/28 03:16:04;;;;;;;14.60;8.20;;;;;;;12.12;100.00;101298.25;105062;1260;60355;-64
2023/09/28 03:18:31;;;;;;;12.60;8.30;;;;;;;12.13;100.00;101299.95;105250;1260;60441;-61
2023/09/28 03:20:59;;;;;;;10.60;8.00;;;;;;;12.16;100.00;101300.39;104926;1261;72493;-60
2023/09/28 03:23:26;;;;;;;12.10;7.50;;;;;;;12.21;100.00;101299.37;104944;1263;65842;-61
2023/09/28 03:25:56;;;;;;;10.20;6.80;;;;;;;12.26;100.00;101297.62;104918;1261;72725;-66
2023/09/28 03:28:23;;;;;;;11.40;6.90;;;;;;;12.32;100.00;101300.45;104961;1262;60626;-64
2023/09/28 03:30:50;;;;;;;9.60;6.70;;;;;;;12.43;100.00;101300.23;105021;1260;60368;-63
2023/09/28 03:33:17;;;;;;;10.30;7.30;;;;;;;12.59;100.00;101299.88;105064;1262;73887;-62
2023/09/28 03:35:44;;;;;;;9.80;8.00;;;;;;;12.79;100.00;101301.35;105189;1264;66950;-62
2023/09/28 03:38:11;;;;;;;14.00;9.30;;;;;;;12.96;100.00;101300.96;105372;1264;71109;-66
2023/09/28 03:40:43;;;;;;;14.60;9.10;;;;;;;13.18;100.00;101300.98;105685;1260;60790;-62
2023/09/28 03:43:11;;;;;;;13.40;9.80;;;;;;;13.45;100.00;101298.62;104904;1271;60447;-62
2023/09/28 03:45:38;;;;;;;17.20;8.90;;;;;;;13.75;100.00;101298.73;104882;1262;73764;-62
2023/09/28 03:48:05;;;;;;;11.30;8.30;;;;;;;14.09;100.00;101290.98;105148;1263;66035;-65
2023/09/28 03:50:32;;;;;;;11.10;7.90;;;;;;;14.46;100.00;101289.77;104884;1263;72481;-62
2023/09/28 03:52:59;;;;;;;13.60;7.80;;;;;;;14.84;100.00;101284.81;104893;1264;61242;-62
2023/09/28 03:55:26;;;;;;;13.10;8.10;;;;;;;15.27;100.00;101281.45;104866;1262;60334;-62
2023/09/28 03:57:53;;;;;;;11.30;7.70;;;;;;;15.75;100.00;101278.89;105113;1259;73222;-66
2023/09/28 04:00:20;;;;;;;15.60;8.50;;;;;;;16.24;100.00;101273.77;105017;1262;65984;-64
2023/09/28 04:02:51;;;;;;;9.20;8.10;;;;;;;16.68;100.00;101271.06;105789;1260;71493;-63
2023/09/28 04:05:23;;;;;;;11.50;7.30;;;;;;;17.14;100.00;101266.92;104568;1260;60455;-64
2023/09/28 04:07:50;;;;;;;9.70;7.40;;;;;;;17.58;100.00;101268.74;105470;1259;60899;-66
2023/09/28 04:10:17;;;;;;;12.30;6.50;;;;;;;18.01;100.00;101269.66;104985;1262;74303;-64
2023/09/28 04:12:48;;;;;;;8.90;6.90;;;;;;;18.44;100.00;101265.24;104884;1262;65989;-62
2023/09/28 04:15:16;;;;;;;15.70;7.20;;;;;;;18.86;100.00;101266.23;104989;1261;72551;-62
2023/09/28 04:17:43;;;;;;;9.50;6.70;;;;;;;19.22;100.00;101265.58;105003;1259;60431;-66
2023/09/28 04:20:12;;;;;;;10.30;6.40;;;;;;;19.60;100.00;101264.13;104941;1265;60344;-66
2023/09/28 04:22:39;;;;;;;9.10;6.50;;;;;;;19.99;100.00;101262.59;105146;1267;72968;-63
2023/09/28 04:25:07;;;;;;;9.10;6.20;;;;;;;20.29;100.00;101264.93;104896;1263;67042;-63
2023/09/28 04:27:34;;;;;;;8.00;5.80;;;;;;;20.62;100.00;101264.83;104959;1261;72217;-62
2023/09/28 04:30:03;;;;;;;9.70;5.80;;;;;;;21.01;100.00;101260.06;104824;1260;60531;-64
2023/09/28 04:32:31;;;;;;;9.30;6.20;;;;;;;21.36;100.00;101259.85;104813;1260;61000;-61
2023/09/28 04:34:58;;;;;;;10.30;5.90;;;;;;;21.63;100.00;101258.36;105308;1262;73868;-62
2023/09/28 04:37:26;;;;;;;7.20;5.80;;;;;;;21.83;100.00;101260.02;104812;1260;67691;-62
2023/09/28 04:39:53;;;;;;;7.60;5.40;;;;;;;22.04;97.77;101261.60;104747;1263;70963;-63
2023/09/28 04:42:20;;;;;;;8.40;6.10;;;;;;;22.20;95.51;101257.55;105299;1263;60971;-65
2023/09/28 04:44:47;;;;;;;8.50;5.40;;;;;;;22.33;90.27;101259.81;105019;1259;60417;-62
2023/09/28 04:47:14;;;;;;;11.70;6.50;;;;;;;22.34;88.17;101259.10;105106;1260;72629;-62
2023/09/28 04:49:41;;;;;;;10.40;6.80;;;;;;;22.10;85.89;101260.98;105389;1260;66004;-66
2023/09/28 04:52:13;;;;;;;10.90;5.80;;;;;;;21.57;89.99;101269.09;108682;1259;72189;-66
2023/09/28 04:54:40;;;;;;;7.60;6.30;;;;;;;20.96;97.37;101272.44;104968;1262;60306;-63
2023/09/28 04:57:07;;;;;;;12.80;6.70;;;;;;;20.46;100.00;101275.75;105435;1261;60552;-64
2023/09/28 04:59:40;;;;;;;8.70;5.90;;;;;;;20.12;100.00;101281.66;105227;1260;72704;-66
2023/09/28 05:02:08;;;;;;;6.50;5.80;;;;;;;19.90;100.00;101285.83;105509;1263;67198;-66
2023/09/28 05:04:35;;;;;;;10.30;5.70;;;;;;;19.70;100.00;101283.34;105234;1260;73269;-64
2023/09/28 05:07:04;;;;;;;15.10;6.20;;;;;;;19.54;100.00;101280.35;105181;1264;60593;-64
2023/09/28 05:09:32;;;;;;;7.40;5.80;;;;;;;19.47;100.00;101280.25;105074;1260;59272;-64
2023/09/28 05:12:01;;;;;;;8.60;5.80;;;;;;;19.44;100.00;101282.98;105184;1260;73718;-63
2023/09/28 05:14:28;;;;;;;11.30;6.60;;;;;;;19.39;100.00;101284.73;105142;1260;67632;-63
2023/09/28 05:16:56;;;;;;;10.80;6.70;;;;;;;19.35;100.00;101289.79;104789;1263;74190;-64
2023/09/28 05:19:25;;;;;;;14.70;8.40;;;;;;;19.28;100.00;101288.55;104835;1261;60547;-63
2023/09/28 05:21:52;;;;;;;11.30;8.30;;;;;;;19.21;100.00;101290.95;105014;1263;61241;-62
2023/09/28 05:24:19;;;;;;;13.30;8.00;;;;;;;19.20;100.00;101289.04;105096;1260;74403;-66
2023/09/28 05:26:46;;;;;;;11.60;8.10;;;;;;;19.22;100.00;101290.15;104885;1259;65972;-63
2023/09/28 05:29:13;;;;;;;10.20;7.10;;;;;;;19.24;100.00;101293.50;104874;1263;71495;-64
2023/09/28 05:31:41;;;;;;;9.90;7.10;;;;;;;19.29;100.00;101299.77;104886;1261;60467;-63
2023/09/28 05:34:08;;;;;;;10.40;7.00;;;;;;;19.34;100.00;101298.63;104887;1260;60498;-63
2023/09/28 05:36:35;;;;;;;8.80;6.40;;;;;;;19.38;100.00;101298.71;106029;1261;72668;-66
2023/09/28 05:39:03;;;;;;;9.30;7.00;;;;;;;19.41;100.00;101298.13;105270;1260;66005;-63
2023/09/28 05:41:31;;;;;;;9.80;7.00;;;;;;;19.47;100.00;101301.86;105156;1262;72740;-63
2023/09/28 05:43:58;;;;;;;9.50;6.70;;;;;;;19.57;100.00;101302.10;105322;1259;60367;-63
2023/09/28 05:46:25;;;;;;;11.20;6.70;;;;;;;19.65;100.00;101304.61;105234;1263;60447;-63
2023/09/28 05:48:52;;;;;;;9.90;6.40;;;;;;;19.74;100.00;101307.80;108143;1259;73895;-65
2023/09/28 05:51:20;;;;;;;9.90;6.30;;;;;;;19.86;100.00;101310.81;104897;1260;67202;-66
2023/09/28 05:53:48;;;;;;;8.40;6.50;;;;;;;20.00;100.00;101308.32;105260;1260;72056;-64
2023/09/28 05:56:15;;;;;;;9.00;6.80;;;;;;;20.12;100.00;101308.73;105141;1260;60501;-63
2023/09/28 05:58:42;;;;;;;11.40;6.20;;;;;;;20.40;100.00;101309.63;105235;1263;60149;-64
2023/09/28 06:01:16;;;;;;;10.60;6.50;;;;;;;20.85;100.00;101310.66;105367;1259;73879;-64
2023/09/28 06:03:43;;;;;;;8.80;6.20;;;;;;;21.55;100.00;101305.34;106403;1260;65863;-63
2023/09/28 06:06:16;;;;;;;11.30;6.40;;;;;;;22.32;100.00;101302.82;105152;1262;71348;-63
2023/09/28 06:08:44;;;;;;;9.50;6.10;;;;;;;23.08;97.66;101303.45;105318;1260;60619;-62
2023/09/28 06:11:15;;;;;;;10.80;7.20;;;;;;;23.61;87.65;101299.82;105445;1261;60283;-64
2023/09/28 06:13:42;;;;;;;9.80;6.20;;;;;;;24.09;84.70;101302.55;105205;1260;73777;-62
2023/09/28 06:16:29;;;;;;;10.20;5.80;;;;;;;24.66;71.95;101297.05;105189;1260;67057;-63
2023/09/28 06:18:56;;;;;;;7.80;6.40;;;;;;;25.01;65.08;101294.39;105365;1259;71671;-66
2023/09/28 06:21:23;;;;;;;10.30;6.90;;;;;;;25.22;60.47;101292.34;105033;1263;60463;-63
2023/09/28 06:23:51;;;;;;;9.50;6.40;;;;;;;25.38;59.78;101287.27;105466;1259;60489;-63
2023/09/28 06:26:18;;;;;;;9.80;7.00;;;;;;;25.57;56.19;101288.68;105422;1259;72838;-63
2023/09/28 06:29:06;;;;;;;8.50;6.50;;;;;;;25.76;52.95;101287.98;105259;1260;67791;-63
2023/09/28 06:31:33;;;;;;;11.30;6.90;;;;;;;25.88;52.43;101286.33;105267;1277;72471;-63
2023/09/28 06:34:01;;;;;;;10.10;7.30;;;;;;;26.12;51.29;101288.50;105535;1262;60460;-63
2023/09/28 06:36:29;;;;;;;10.00;7.40;;;;;;;26.36;50.73;101290.77;105317;1259;60439;-63
2023/09/28 06:38:59;;;;;;;12.10;8.00;;;;;;;26.54;47.91;101288.60;105449;1259;73445;-65
2023/09/28 06:41:26;;;;;;;12.00;7.70;;;;;;;26.49;46.61;101290.61;105260;1262;67076;-63
2023/09/28 06:43:54;;;;;;;11.60;7.30;;;;;;;26.46;47.10;101290.48;105369;1260;72765;-63
2023/09/28 06:46:21;;;;;;;10.30;6.90;;;;;;;26.59;46.15;101290.10;105399;1262;60428;-63
2023/09/28 06:48:52;;;;;;;13.30;8.30;;;;;;;26.67;45.65;101293.21;105637;1259;60606;-65
2023/09/28 06:51:21;;;;;;;;;;;;;;;26.69;45.48;101287.23;105407;1259;72486;-63
2023/09/28 06:53:49;;;;;;;9.80;8.60;;;;;;;26.78;45.14;101289.06;105660;1260;67056;-65
2023/09/28 06:56:16;;;;;;;10.60;7.40;;;;;;;26.86;45.34;101287.78;105259;1260;71251;-65
2023/09/28 06:58:43;;;;;;;12.60;8.80;;;;;;;27.08;44.87;101291.38;105512;1260;60562;-66
2023/09/28 07:01:10;;;;;;;11.70;7.60;;;;;;;27.29;44.36;101291.18;105578;1262;60419;-67
2023/09/28 07:03:37;;;;;;;13.10;8.80;;;;;;;27.54;43.89;101289.09;105538;1262;74446;-65
2023/09/28 07:06:05;;;;;;;12.20;8.50;;;;;;;27.80;42.65;101285.94;105431;1260;66972;-64
2023/09/28 07:08:32;;;;;;;12.30;9.10;;;;;;;27.98;41.71;101294.13;105431;1262;72690;-65
2023/09/28 07:10:59;;;;;;;13.70;8.90;;;;;;;27.98;40.97;101288.51;105327;1263;60891;-65
2023/09/28 07:13:27;;;;;;;11.50;8.50;;;;;;;27.94;41.50;101287.55;105489;1261;61081;-66
2023/09/28 07:15:56;;;;;;;16.30;9.20;;;;;;;28.00;41.27;101285.01;105273;1259;72427;-67
2023/09/28 07:18:23;;;;;;;11.60;8.80;;;;;;;28.03;41.67;101283.81;105254;1260;67610;-65
2023/09/28 07:20:51;;;;;;;13.50;9.20;;;;;;;28.19;41.34;101283.27;105333;1260;70974;-64
2023/09/28 07:23:18;;;;;;;13.00;8.70;;;;;;;28.42;40.95;101285.14;105320;1262;60438;-66
2023/09/28 07:25:45;;;;;;;15.10;9.00;;;;;;;28.58;40.27;101283.06;105463;1260;61080;-66
2023/09/28 07:28:12;;;;;;;12.40;8.30;;;;;;;28.60;39.69;101281.92;105285;1260;73146;-64
2023/09/28 07:30:40;;;;;;;12.70;9.00;;;;;;;28.49;39.56;101282.48;105215;1260;67207;-65
2023/09/28 07:33:08;;;;;;;13.80;9.20;;;;;;;28.37;40.54;101282.05;105924;1259;72638;-66
2023/09/28 07:35:35;;;;;;;13.70;8.70;;;;;;;28.56;40.96;101280.61;105226;1262;60409;-64
2023/09/28 07:38:02;;;;;;;13.10;7.70;;;;;;;28.84;39.54;101275.47;105343;1260;60443;-66
2023/09/28 07:40:30;;;;;;;14.40;8.50;;;;;;;28.91;39.22;101276.91;105368;1259;75736;-65
2023/09/28 07:43:14;;;;;;;13.10;7.80;;;;;;;29.06;38.76;101273.86;105519;1259;67972;-65
2023/09/28 07:45:41;;;;;;;10.80;8.10;;;;;;;29.12;37.98;101273.48;105361;1259;74591;-65
2023/09/28 07:48:08;;;;;;;10.30;7.70;;;;;;;29.08;38.04;101271.75;105218;1260;60706;-65
2023/09/28 07:50:35;;;;;;;10.90;8.00;;;;;;;29.14;37.77;101270.94;105261;1260;61041;-65
2023/09/28 07:53:03;;;;;;;11.00;7.50;;;;;;;29.16;37.45;101268.23;105203;1259;72315;-65
2023/09/28 07:55:31;;;;;;;11.60;7.50;;;;;;;29.19;37.53;101270.35;105478;1262;68658;-66
2023/09/28 07:58:00;;;;;;;15.30;8.50;;;;;;;29.31;37.90;101268.95;105226;1260;74347;-65
2023/09/28 08:00:47;;;;;;;13.10;8.20;;;;;;;29.53;36.85;101262.60;104881;1261;60916;-65
2023/09/28 08:03:15;;;;;;;13.10;7.40;;;;;;;29.65;36.25;101263.77;105333;1259;61854;-66
2023/09/28 08:05:42;;;;;;;13.30;8.00;;;;;;;29.62;36.04;101259.61;105527;1259;74457;-64
2023/09/28 08:08:09;;;;;;;13.00;7.90;;;;;;;29.56;35.79;101253.27;105554;1261;66102;-64
2023/09/28 08:10:44;;;;;;;11.20;6.60;;;;;;;29.45;35.64;101252.85;105041;1260;73918;-64
2023/09/28 08:13:11;;;;;;;12.90;7.00;;;;;;;29.35;36.66;101252.95;105482;1258;61969;-66
2023/09/28 08:15:41;;;;;;;10.00;7.20;;;;;;;29.47;36.44;101250.57;105536;1259;60537;-65
2023/09/28 08:18:09;;;;;;;11.60;7.00;;;;;;;29.55;35.80;101247.20;105314;1259;72447;-67
2023/09/28 08:20:37;;;;;;;10.30;7.00;;;;;;;29.53;35.68;101243.04;105335;1260;67768;-66
2023/09/28 08:23:04;;;;;;;10.60;6.90;;;;;;;29.56;35.24;101239.89;105345;1260;74160;-64
2023/09/28 08:25:32;;;;;;;9.60;7.10;;;;;;;29.55;35.09;101239.80;105418;1262;60569;-65
2023/09/28 08:28:00;;;;;;;11.60;6.80;;;;;;;29.49;35.06;101236.48;105148;1260;60370;-65
2023/09/28 08:30:27;;;;;;;12.70;6.70;;;;;;;29.49;35.22;101241.10;105265;1260;75465;-65
2023/09/28 08:32:54;;;;;;;14.30;7.20;;;;;;;29.53;34.60;101240.55;105266;1261;67113;-64
2023/09/28 08:35:22;;;;;;;9.50;6.90;;;;;;;29.54;34.61;101236.58;105310;1260;72124;-66
2023/09/28 08:37:50;;;;;;;10.90;6.00;;;;;;;29.61;35.21;101235.54;105253;1262;61135;-65
2023/09/28 08:40:17;;;;;;;12.00;8.00;;;;;;;29.74;34.88;101240.23;105333;1260;61879;-66
2023/09/28 08:42:48;;;;;;;11.50;7.90;;;;;;;29.80;34.42;101233.00;105107;1260;72722;-65
2023/09/28 08:45:18;;;;;;;11.80;7.80;;;;;;;29.73;34.20;101234.61;105332;1261;66143;-65
2023/09/28 08:47:49;;;;;;;11.10;8.30;;;;;;;29.63;33.79;101237.27;105556;1260;74210;-65
2023/09/28 08:50:22;;;;;;;14.10;7.50;;;;;;;29.53;34.24;101236.96;105459;1262;60942;-66
2023/09/28 08:52:53;;;;;;;9.60;7.40;;;;;;;29.54;34.71;101238.02;105042;1262;60435;-65
2023/09/28 08:55:21;;;;;;;11.20;7.30;;;;;;;29.58;35.03;101236.02;105370;1260;75751;-66
2023/09/28 08:57:48;;;;;;;13.00;8.50;;;;;;;29.72;34.74;101236.55;105354;1260;68713;-67
2023/09/28 09:00:16;;;;;;;13.20;9.10;;;;;;;29.84;34.66;101227.53;105184;1260;74160;-65
2023/09/28 09:02:43;;;;;;;13.50;7.90;;;;;;;29.99;34.39;101226.80;105244;1259;61888;-66
2023/09/28 09:05:13;;;;;;;11.90;6.80;;;;;;;30.06;34.58;101228.15;105093;1259;62512;-65
2023/09/28 09:07:42;;;;;;;8.60;6.80;;;;;;;30.11;34.34;101224.31;105067;1260;75499;-63
2023/09/28 09:10:12;;;;;;;9.80;7.20;;;;;;;30.25;34.39;101217.79;105017;1259;68998;-64
2023/09/28 09:12:39;;;;;;;10.90;7.10;;;;;;;30.48;34.75;101217.23;105364;1260;73188;-65
2023/09/28 09:15:07;;;;;;;10.00;7.00;;;;;;;30.67;33.89;101210.77;104507;1265;60547;-63
2023/09/28 09:17:34;;;;;;;8.70;5.90;;;;;;;30.64;33.41;101211.11;105165;1259;60832;-67
2023/09/28 09:20:05;;;;;;;9.00;6.30;;;;;;;30.63;33.78;101208.98;105130;1260;74983;-65
2023/09/28 09:22:32;;;;;;;8.30;6.10;;;;;;;30.73;33.44;101205.05;105149;1265;67251;-64
2023/09/28 09:25:20;;;;;;;6.60;5.20;;;;;;;30.68;33.46;101205.06;105215;1260;74625;-64
2023/09/28 09:27:48;;;;;;;7.80;5.50;;;;;;;30.67;33.08;101200.55;105135;1263;61998;-64
2023/09/28 09:30:17;;;;;;;7.40;5.10;;;;;;;30.65;33.70;101200.81;105241;1263;61061;-64
2023/09/28 09:32:44;;;;;;;6.10;4.30;;;;;;;30.68;32.49;101198.38;105161;1259;74303;-66
2023/09/28 09:35:11;;;;;;;7.10;3.80;;;;;;;30.54;31.89;101190.27;104863;1265;68562;-63
2023/09/28 09:37:44;;;;;;;8.80;4.90;;;;;;;30.34;32.51;101193.02;105210;1259;73209;-65
2023/09/28 09:40:12;;;;;;;7.10;4.60;;;;;;;30.35;33.17;101191.76;105425;1260;60355;-65
2023/09/28 09:42:41;;;;;;;7.50;4.50;;;;;;;30.46;32.81;101184.11;104858;1262;60717;-66
2023/09/28 09:45:11;;;;;;;5.10;4.20;;;;;;;30.50;32.41;101184.59;104804;1262;75395;-64
2023/09/28 09:47:47;;;;;;;5.70;3.50;;;;;;;30.44;32.10;101179.75;104924;1260;68967;-66
2023/09/28 09:50:16;;;;;;;7.20;3.60;;;;;;;30.42;31.70;101177.73;104950;1259;74074;-67
2023/09/28 09:52:44;;;;;;;7.20;4.30;;;;;;;30.36;31.77;101177.27;104676;1260;62095;-65
2023/09/28 09:55:12;;;;;;;5.20;3.80;;;;;;;30.36;32.23;101174.54;105027;1260;60437;-65
2023/09/28 09:57:41;;;;;;;4.70;3.70;;;;;;;30.43;31.92;101172.54;104943;1259;75484;-67
2023/09/28 10:00:09;;;;;;;5.90;3.50;;;;;;;30.47;32.09;101168.61;104942;1259;68469;-66
2023/09/28 10:02:39;;;;;;;5.50;3.80;;;;;;;30.47;31.94;101168.84;105181;1259;72552;-67
2023/09/28 10:05:12;;;;;;;4.90;3.30;;;;;;;30.53;31.54;101167.80;104777;1264;60837;-67
2023/09/28 10:07:39;;;;;;;8.40;3.80;;;;;;;30.52;31.25;101162.22;104781;1259;60556;-66
2023/09/28 10:10:09;;;;;;;6.00;3.60;;;;;;;30.47;30.96;101165.54;104817;1260;75135;-66
2023/09/28 10:12:37;;;;;;;5.00;3.40;;;;;;;30.39;30.85;101163.30;105379;1259;68555;-66
2023/09/28 10:15:05;;;;;;;7.00;2.80;;;;;;;30.38;30.80;101154.81;104942;1260;73165;-67
2023/09/28 10:17:32;;;;;;;4.10;2.80;;;;;;;30.43;30.38;101150.95;104954;1259;61909;-66
2023/09/28 10:20:00;;;;;;;4.90;3.30;;;;;;;30.50;30.84;101148.59;104937;1260;61685;-69
2023/09/28 10:22:28;;;;;;;5.00;3.10;;;;;;;30.59;30.50;101147.52;104810;1259;72858;-68
2023/09/28 10:24:55;;;;;;;4.60;2.90;;;;;;;30.63;29.94;101145.08;105363;1262;65743;-68
2023/09/28 10:27:22;;;;;;;3.90;2.90;;;;;;;30.55;29.50;101142.89;104728;1267;73793;-68
2023/09/28 10:29:50;;;;;;;4.30;2.50;;;;;;;30.48;29.46;101141.63;104953;1259;61963;-67
2023/09/28 10:32:27;;;;;;;3.40;2.30;;;;;;;30.43;28.63;101142.15;105132;1259;61660;-67
2023/09/28 10:35:20;;;;;;;3.10;2.50;;;;;;;30.41;28.89;101137.33;104863;1265;75474;-68
2023/09/28 10:38:20;;;;;;;3.60;2.40;;;;;;;30.46;28.98;101135.48;105048;1260;68487;-68
2023/09/28 10:40:49;;;;;;;4.90;2.70;;;;;;;30.40;29.50;101129.55;104885;1260;73895;-68
2023/09/28 10:43:31;;;;;;;3.90;2.90;;;;;;;30.37;29.02;101128.52;104827;1262;290390;-68
2023/09/28 10:46:03;;;;;;;4.00;2.70;;;;;;;30.37;29.31;101122.66;104910;1258;61980;-66
2023/09/28 10:48:44;;;;;;;4.10;2.90;;;;;;;30.36;29.46;101125.60;104551;1259;74421;-66
2023/09/28 10:51:15;;;;;;;4.70;3.00;;;;;;;30.40;30.04;101123.37;104976;1264;66038;-67
2023/09/28 10:53:43;;;;;;;5.60;3.00;;;;;;;30.55;29.66;101128.16;104994;1262;74408;-65
2023/09/28 10:56:10;;;;;;;4.60;3.60;;;;;;;30.62;29.44;101125.99;104946;1262;60882;-69
2023/09/28 10:58:39;;;;;;;6.70;3.30;;;;;;;30.53;29.26;101127.88;105064;1259;62089;-65
2023/09/28 11:01:06;;;;;;;4.20;3.30;;;;;;;30.35;29.86;101116.56;105672;1259;75283;-68
2023/09/28 11:03:35;;;;;;;4.80;3.10;;;;;;;30.36;30.37;101115.05;105234;1259;60475;-66
2023/09/28 11:06:07;;;;;;;5.80;3.30;;;;;;;30.48;30.41;101112.89;105274;1259;73495;-68
2023/09/28 11:08:36;;;;;;;5.40;3.50;;;;;;;30.55;29.99;101110.03;105108;1260;61393;-68
2023/09/28 11:11:03;;;;;;;4.80;3.70;;;;;;;30.53;30.41;101109.63;105601;1260;60326;-68
2023/09/28 11:13:31;;;;;;;5.40;3.70;;;;;;;30.48;29.54;101107.34;105104;1259;74089;-68
2023/09/28 11:15:59;;;;;;;5.00;3.20;;;;;;;30.32;29.69;101104.34;105457;1260;67659;-68